createdAt,value
2022-08-26T00:00:07.933Z,22.94
2022-08-26T00:02:40.254Z,23.12
2022-08-26T00:05:10.096Z,22.93
2022-08-26T00:07:38.049Z,22.99
2022-08-26T00:10:06.590Z,22.93
2022-08-26T00:12:37.299Z,22.80
2022-08-26T00:15:08.070Z,22.98
2022-08-26T00:17:36.674Z,22.94
2022-08-26T00:20:12.901Z,22.99
2022-08-26T00:22:42.369Z,23.00
2022-08-26T00:25:10.361Z,22.82
2022-08-26T00:27:38.381Z,22.81
2022-08-26T00:30:10.210Z,22.31
2022-08-26T00:32:38.062Z,22.64
2022-08-26T00:35:08.877Z,22.79
2022-08-26T00:37:36.640Z,22.67
2022-08-26T00:40:07.075Z,22.70
2022-08-26T00:42:35.211Z,22.50
2022-08-26T00:45:11.590Z,22.48
2022-08-26T00:47:53.512Z,22.49
2022-08-26T00:50:34.127Z,22.48
2022-08-26T00:53:03.952Z,22.53
2022-08-26T00:55:38.077Z,22.43
2022-08-26T00:58:07.160Z,22.63
2022-08-26T01:00:35.820Z,22.46
2022-08-26T01:03:05.245Z,22.39
2022-08-26T01:05:33.721Z,22.40
2022-08-26T01:08:01.612Z,22.52
2022-08-26T01:10:31.890Z,22.55
2022-08-26T01:13:02.763Z,22.53
2022-08-26T01:15:44.642Z,22.48
2022-08-26T01:18:13.932Z,22.28
2022-08-26T01:20:57.804Z,22.28
2022-08-26T01:23:33.190Z,22.32
2022-08-26T01:26:05.538Z,22.36
2022-08-26T01:28:35.962Z,22.17
2022-08-26T01:31:05.759Z,22.26
2022-08-26T01:34:04.913Z,22.17
2022-08-26T01:36:32.789Z,22.09
2022-08-26T01:39:00.803Z,22.13
2022-08-26T01:41:34.084Z,22.04
2022-08-26T01:44:03.783Z,21.94
2022-08-26T01:46:32.180Z,22.18
2022-08-26T01:49:03.142Z,22.19
2022-08-26T01:51:38.961Z,22.06
2022-08-26T01:54:11.943Z,22.02
2022-08-26T01:56:42.390Z,21.84
2022-08-26T01:59:13.011Z,21.95
2022-08-26T02:01:41.516Z,22.01
2022-08-26T02:04:37.628Z,22.04
2022-08-26T02:07:07.480Z,22.12
2022-08-26T02:09:41.335Z,22.01
2022-08-26T02:12:11.868Z,21.95
2022-08-26T02:14:50.331Z,21.74
2022-08-26T02:17:23.481Z,21.96
2022-08-26T02:19:51.866Z,21.97
2022-08-26T02:22:21.517Z,22.00
2022-08-26T02:24:52.930Z,21.92
2022-08-26T02:27:33.024Z,21.77
2022-08-26T02:30:13.981Z,21.82
2022-08-26T02:32:42.371Z,21.54
2022-08-26T02:35:12.510Z,21.75
2022-08-26T02:37:41.999Z,21.90
2022-08-26T02:40:11.736Z,21.97
2022-08-26T02:42:39.531Z,21.93
2022-08-26T02:45:08.464Z,21.83
2022-08-26T02:47:37.588Z,21.63
2022-08-26T02:50:06.635Z,21.80
2022-08-26T02:52:36.343Z,21.87
2022-08-26T02:55:06.701Z,21.84
2022-08-26T02:57:34.851Z,21.78
2022-08-26T03:00:04.662Z,21.82
2022-08-26T03:02:32.431Z,21.55
2022-08-26T03:05:02.218Z,20.74
2022-08-26T03:07:31.474Z,20.99
2022-08-26T03:09:59.352Z,20.92
2022-08-26T03:12:27.233Z,21.47
2022-08-26T03:14:55.310Z,20.99
2022-08-26T03:17:23.950Z,21.86
2022-08-26T03:19:57.210Z,21.85
2022-08-26T03:22:27.085Z,21.77
2022-08-26T03:24:55.345Z,21.93
2022-08-26T03:27:23.064Z,21.88
2022-08-26T03:30:11.840Z,21.57
2022-08-26T03:32:41.537Z,21.62
2022-08-26T03:35:10.064Z,21.70
2022-08-26T03:37:38.762Z,21.39
2022-08-26T03:40:10.160Z,21.48
2022-08-26T03:42:40.132Z,21.49
2022-08-26T03:45:14.123Z,21.09
2022-08-26T03:47:43.352Z,21.52
2022-08-26T03:50:14.894Z,21.57
2022-08-26T03:52:44.208Z,21.11
2022-08-26T03:55:13.085Z,21.33
2022-08-26T03:57:41.541Z,21.38
2022-08-26T04:00:18.519Z,21.33
2022-08-26T04:02:48.906Z,21.10
2022-08-26T04:05:18.214Z,21.26
2022-08-26T04:07:47.514Z,21.20
2022-08-26T04:10:20.376Z,21.14
2022-08-26T04:12:48.654Z,21.11
2022-08-26T04:15:17.795Z,20.49
2022-08-26T04:17:45.741Z,20.97
2022-08-26T04:20:16.269Z,21.06
2022-08-26T04:22:45.833Z,21.19
2022-08-26T04:25:14.032Z,21.22
2022-08-26T04:27:41.773Z,21.15
2022-08-26T04:30:10.622Z,21.08
2022-08-26T04:32:38.811Z,21.05
2022-08-26T04:35:10.004Z,21.27
2022-08-26T04:37:38.567Z,21.37
2022-08-26T04:40:06.947Z,21.30
2022-08-26T04:42:34.844Z,21.18
2022-08-26T04:45:05.815Z,20.90
2022-08-26T04:47:38.142Z,21.39
2022-08-26T04:50:07.852Z,21.73
2022-08-26T04:52:36.902Z,21.86
2022-08-26T04:55:08.313Z,21.96
2022-08-26T04:57:36.746Z,22.15
2022-08-26T05:00:07.094Z,22.20
2022-08-26T05:02:35.023Z,22.11
2022-08-26T05:05:04.842Z,22.27
2022-08-26T05:07:35.093Z,22.45
2022-08-26T05:10:04.305Z,22.66
2022-08-26T05:12:36.704Z,22.66
2022-08-26T05:15:07.824Z,22.61
2022-08-26T05:17:37.594Z,22.67
2022-08-26T05:20:07.276Z,22.55
2022-08-26T05:22:35.984Z,23.09
2022-08-26T05:25:04.421Z,23.45
2022-08-26T05:27:33.166Z,24.21
2022-08-26T05:30:01.911Z,23.97
2022-08-26T05:32:30.295Z,24.00
2022-08-26T05:35:00.453Z,24.58
2022-08-26T05:37:30.652Z,24.51
2022-08-26T05:40:02.850Z,24.42
2022-08-26T05:42:32.891Z,24.74
2022-08-26T05:45:05.543Z,25.11
2022-08-26T05:47:39.010Z,25.67
2022-08-26T05:50:11.531Z,25.71
2022-08-26T05:52:39.872Z,26.09
2022-08-26T05:55:09.485Z,26.06
2022-08-26T05:57:40.557Z,26.21
2022-08-26T06:00:13.804Z,26.33
2022-08-26T06:02:42.034Z,26.84
2022-08-26T06:05:12.775Z,27.31
2022-08-26T06:08:02.509Z,27.78
2022-08-26T06:10:33.483Z,28.34
2022-08-26T06:13:11.534Z,28.26
2022-08-26T06:15:49.346Z,27.83
2022-08-26T06:18:21.922Z,28.50
2022-08-26T06:20:58.049Z,28.58
2022-08-26T06:23:50.663Z,28.10
2022-08-26T06:26:20.394Z,28.59
2022-08-26T06:28:49.352Z,29.20
2022-08-26T06:31:17.503Z,30.12
2022-08-26T06:33:47.789Z,29.27
2022-08-26T06:36:21.943Z,29.93
2022-08-26T06:38:56.963Z,29.54
2022-08-26T06:41:26.389Z,30.42
2022-08-26T06:43:58.283Z,30.64
2022-08-26T06:46:32.802Z,29.99
2022-08-26T06:49:07.786Z,30.92
2022-08-26T06:51:41.580Z,30.80
2022-08-26T06:54:22.612Z,30.43
2022-08-26T06:57:12.254Z,30.95
2022-08-26T06:59:45.901Z,31.38
2022-08-26T07:02:15.599Z,30.80
2022-08-26T07:04:58.566Z,31.07
2022-08-26T07:07:38.992Z,30.36
2022-08-26T07:10:10.933Z,30.10
2022-08-26T07:12:39.100Z,30.62
2022-08-26T07:15:12.812Z,31.10
2022-08-26T07:17:40.735Z,31.05
2022-08-26T07:20:10.170Z,31.27
2022-08-26T07:22:38.562Z,31.60
2022-08-26T07:25:08.443Z,31.48
2022-08-26T07:27:37.800Z,32.11
2022-08-26T07:30:07.443Z,32.51
2022-08-26T07:32:35.623Z,32.50
2022-08-26T07:35:04.665Z,31.28
2022-08-26T07:37:35.644Z,32.25
2022-08-26T07:40:09.251Z,31.84
2022-08-26T07:42:38.047Z,31.96
2022-08-26T07:45:06.665Z,32.13
2022-08-26T07:47:37.425Z,32.48
2022-08-26T07:50:10.564Z,32.32
2022-08-26T07:52:43.372Z,31.76
2022-08-26T07:55:13.264Z,32.29
2022-08-26T07:57:41.768Z,33.46
2022-08-26T08:00:18.508Z,32.58
2022-08-26T08:02:50.530Z,33.36
2022-08-26T08:05:33.348Z,33.24
2022-08-26T08:08:27.415Z,34.37
2022-08-26T08:10:59.640Z,33.12
2022-08-26T08:13:28.598Z,33.36
2022-08-26T08:15:56.656Z,33.89
2022-08-26T08:18:24.542Z,33.62
2022-08-26T08:20:54.546Z,33.55
2022-08-26T08:23:33.515Z,34.54
2022-08-26T08:26:03.834Z,34.73
2022-08-26T08:28:31.675Z,33.87
2022-08-26T08:31:00.208Z,34.26
2022-08-26T08:33:30.369Z,33.74
2022-08-26T08:35:59.066Z,35.02
2022-08-26T08:38:27.815Z,35.24
2022-08-26T08:40:55.932Z,34.89
2022-08-26T08:43:46.623Z,35.08
2022-08-26T08:46:17.052Z,33.76
2022-08-26T08:48:53.766Z,35.73
2022-08-26T08:51:32.196Z,34.38
2022-08-26T08:54:10.153Z,35.86
2022-08-26T08:56:59.921Z,35.49
2022-08-26T08:59:34.661Z,34.65
2022-08-26T09:02:09.491Z,35.59
2022-08-26T09:05:06.705Z,34.35
2022-08-26T09:07:47.138Z,33.92
2022-08-26T09:10:42.780Z,34.32
2022-08-26T09:13:16.945Z,34.31
2022-08-26T09:15:50.912Z,34.93
2022-08-26T09:18:26.287Z,33.77
2022-08-26T09:21:08.618Z,34.68
2022-08-26T09:23:41.906Z,35.34
2022-08-26T09:26:28.703Z,34.01
2022-08-26T09:29:04.468Z,33.55
2022-08-26T09:31:36.042Z,35.14
2022-08-26T09:34:24.176Z,33.44
2022-08-26T09:37:00.107Z,34.30
2022-08-26T09:39:38.913Z,35.34
2022-08-26T09:42:10.896Z,34.38
2022-08-26T09:45:00.416Z,35.59
2022-08-26T09:47:36.661Z,34.97
2022-08-26T09:50:34.953Z,34.56
2022-08-26T09:53:14.889Z,33.96
2022-08-26T09:55:48.052Z,35.30
2022-08-26T09:58:38.219Z,35.47
2022-08-26T10:01:09.032Z,34.72
2022-08-26T10:03:41.370Z,34.64
2022-08-26T10:06:21.008Z,35.34
2022-08-26T10:08:54.285Z,35.88
2022-08-26T10:11:25.884Z,35.20
2022-08-26T10:13:59.554Z,35.25
2022-08-26T10:16:42.379Z,36.59
2022-08-26T10:19:16.952Z,37.34
2022-08-26T10:22:00.073Z,36.39
2022-08-26T10:24:32.530Z,37.78
2022-08-26T10:27:19.350Z,36.25
2022-08-26T10:29:51.609Z,37.23
2022-08-26T10:32:41.543Z,36.65
2022-08-26T10:35:12.874Z,37.27
2022-08-26T10:37:48.324Z,36.43
2022-08-26T10:40:30.935Z,37.84
2022-08-26T10:43:11.242Z,37.56
2022-08-26T10:45:50.523Z,37.90
2022-08-26T10:48:47.610Z,36.62
2022-08-26T10:51:20.741Z,35.08
2022-08-26T10:54:36.723Z,36.25
2022-08-26T10:57:09.678Z,35.90
2022-08-26T10:59:46.379Z,36.94
2022-08-26T11:02:15.016Z,36.73
2022-08-26T11:04:58.979Z,38.05
2022-08-26T11:07:43.394Z,37.95
2022-08-26T11:10:17.356Z,37.35
2022-08-26T11:12:49.400Z,38.02
2022-08-26T11:15:24.725Z,37.07
2022-08-26T11:17:53.240Z,37.12
2022-08-26T11:20:33.137Z,37.12
2022-08-26T11:23:15.257Z,37.13
2022-08-26T11:26:16.401Z,36.58
2022-08-26T11:29:03.119Z,36.84
2022-08-26T11:31:39.183Z,37.94
2022-08-26T11:34:14.052Z,38.57
2022-08-26T11:36:51.561Z,37.54
2022-08-26T11:39:30.907Z,38.45
2022-08-26T11:42:27.755Z,37.08
2022-08-26T11:45:01.472Z,37.58
2022-08-26T11:47:33.600Z,37.82
2022-08-26T11:50:18.953Z,37.30
2022-08-26T11:53:06.106Z,37.32
2022-08-26T11:55:37.985Z,37.49
2022-08-26T11:58:07.736Z,36.52
2022-08-26T12:00:49.227Z,36.86
2022-08-26T12:03:23.061Z,38.17
2022-08-26T12:05:52.853Z,36.66
2022-08-26T12:08:27.939Z,37.97
2022-08-26T12:11:09.632Z,37.13
2022-08-26T12:13:39.705Z,36.36
2022-08-26T12:16:08.524Z,37.00
2022-08-26T12:18:39.129Z,36.62
2022-08-26T12:21:26.754Z,36.47
2022-08-26T12:24:01.469Z,35.91
2022-08-26T12:26:32.978Z,37.03
2022-08-26T12:29:20.281Z,36.84
2022-08-26T12:32:21.412Z,37.13
2022-08-26T12:34:52.320Z,37.78
2022-08-26T12:37:21.542Z,37.00
2022-08-26T12:39:50.707Z,37.38
2022-08-26T12:42:19.428Z,37.70
2022-08-26T12:45:06.623Z,37.69
2022-08-26T12:47:42.661Z,37.59
2022-08-26T12:50:22.598Z,37.34
2022-08-26T12:52:57.878Z,36.62
2022-08-26T12:55:44.277Z,36.68
2022-08-26T12:58:32.117Z,37.07
2022-08-26T13:01:07.008Z,36.52
2022-08-26T13:03:35.763Z,37.07
2022-08-26T13:06:29.896Z,36.64
2022-08-26T13:09:25.162Z,36.32
2022-08-26T13:11:53.367Z,37.07
2022-08-26T13:14:24.710Z,35.58
2022-08-26T13:16:54.954Z,36.09
2022-08-26T13:19:25.971Z,36.08
2022-08-26T13:21:57.269Z,36.51
2022-08-26T13:24:38.682Z,36.80
2022-08-26T13:27:14.893Z,35.94
2022-08-26T13:29:43.238Z,36.15
2022-08-26T13:32:12.009Z,35.76
2022-08-26T13:34:41.041Z,35.75
2022-08-26T13:37:09.369Z,35.81
2022-08-26T13:39:39.869Z,36.49
2022-08-26T13:42:09.267Z,35.69
2022-08-26T13:44:39.272Z,36.10
2022-08-26T13:47:07.683Z,36.87
2022-08-26T13:49:36.777Z,36.65
2022-08-26T13:52:05.542Z,36.28
2022-08-26T13:54:33.920Z,35.88
2022-08-26T13:57:02.216Z,36.18
2022-08-26T13:59:30.656Z,35.98
2022-08-26T14:01:59.042Z,36.06
2022-08-26T14:04:27.905Z,35.78
2022-08-26T14:06:56.395Z,35.38
2022-08-26T14:09:25.008Z,36.11
2022-08-26T14:11:54.266Z,36.06
2022-08-26T14:14:23.450Z,36.09
2022-08-26T14:16:59.435Z,35.24
2022-08-26T14:19:30.370Z,35.83
2022-08-26T14:22:01.029Z,35.67
2022-08-26T14:24:29.887Z,35.95
2022-08-26T14:26:57.872Z,35.77
2022-08-26T14:29:27.048Z,35.22
2022-08-26T14:31:56.652Z,35.23
2022-08-26T14:34:25.169Z,35.49
2022-08-26T14:36:52.970Z,35.02
2022-08-26T14:39:21.492Z,34.73
2022-08-26T14:41:53.757Z,35.51
2022-08-26T14:44:27.150Z,34.58
2022-08-26T14:46:55.414Z,34.29
2022-08-26T14:49:24.517Z,34.85
2022-08-26T14:51:52.340Z,34.79
2022-08-26T14:54:20.772Z,34.84
2022-08-26T14:56:55.521Z,34.46
2022-08-26T14:59:26.365Z,34.51
2022-08-26T15:01:55.632Z,35.31
2022-08-26T15:04:24.362Z,34.77
2022-08-26T15:06:54.055Z,34.12
2022-08-26T15:09:23.167Z,34.17
2022-08-26T15:11:51.467Z,34.22
2022-08-26T15:14:20.405Z,33.96
2022-08-26T15:16:50.575Z,34.41
2022-08-26T15:19:18.935Z,34.65
2022-08-26T15:21:47.652Z,34.19
2022-08-26T15:24:19.613Z,34.20
2022-08-26T15:26:48.448Z,34.86
2022-08-26T15:29:17.024Z,33.89
2022-08-26T15:31:45.420Z,34.46
2022-08-26T15:34:16.675Z,34.04
2022-08-26T15:36:47.070Z,33.46
2022-08-26T15:39:16.472Z,33.48
2022-08-26T15:41:44.923Z,32.67
2022-08-26T15:44:14.494Z,32.61
2022-08-26T15:46:43.349Z,33.19
2022-08-26T15:49:17.502Z,32.98
2022-08-26T15:51:48.097Z,33.05
2022-08-26T15:54:17.548Z,33.90
2022-08-26T15:56:47.313Z,33.06
2022-08-26T15:59:16.912Z,32.73
2022-08-26T16:01:45.075Z,32.98
2022-08-26T16:04:14.160Z,33.34
2022-08-26T16:06:43.654Z,33.42
2022-08-26T16:09:11.449Z,32.75
2022-08-26T16:11:39.629Z,32.89
2022-08-26T16:14:08.002Z,32.59
2022-08-26T16:16:40.025Z,33.36
2022-08-26T16:19:09.463Z,32.36
2022-08-26T16:21:38.566Z,31.83
2022-08-26T16:24:07.563Z,32.20
2022-08-26T16:26:38.748Z,32.95
2022-08-26T16:29:09.915Z,32.75
2022-08-26T16:31:39.685Z,32.06
2022-08-26T16:34:08.684Z,31.68
2022-08-26T16:36:38.013Z,31.86
2022-08-26T16:39:07.498Z,31.72
2022-08-26T16:41:36.301Z,31.15
2022-08-26T16:44:05.508Z,30.81
2022-08-26T16:46:34.596Z,30.55
2022-08-26T16:49:06.385Z,30.27
2022-08-26T16:51:38.168Z,29.81
2022-08-26T16:54:08.189Z,29.39
2022-08-26T16:56:37.886Z,29.17
2022-08-26T16:59:07.819Z,28.87
2022-08-26T17:01:36.893Z,28.84
2022-08-26T17:04:06.124Z,28.58
2022-08-26T17:06:34.371Z,28.43
2022-08-26T17:09:02.840Z,28.16
2022-08-26T17:11:31.274Z,28.04
2022-08-26T17:13:59.516Z,27.44
2022-08-26T17:16:28.353Z,27.74
2022-08-26T17:18:58.133Z,27.69
2022-08-26T17:21:27.532Z,27.05
2022-08-26T17:23:56.456Z,27.14
2022-08-26T17:26:24.995Z,27.02
2022-08-26T17:28:53.747Z,26.90
2022-08-26T17:31:23.906Z,26.39
2022-08-26T17:33:54.332Z,26.87
2022-08-26T17:36:27.929Z,26.61
2022-08-26T17:38:57.965Z,26.64
2022-08-26T17:41:26.783Z,26.10
2022-08-26T17:43:55.348Z,25.87
2022-08-26T17:46:25.039Z,26.39
2022-08-26T17:48:53.752Z,26.32
2022-08-26T17:51:23.628Z,25.87
2022-08-26T17:53:52.527Z,26.08
2022-08-26T17:56:26.500Z,25.84
2022-08-26T17:58:57.928Z,25.58
2022-08-26T18:01:31.401Z,25.70
2022-08-26T18:04:00.719Z,24.87
2022-08-26T18:06:30.541Z,24.91
2022-08-26T18:08:59.479Z,25.48
2022-08-26T18:11:28.528Z,25.29
2022-08-26T18:13:56.362Z,25.31
2022-08-26T18:16:24.940Z,25.60
2022-08-26T18:18:53.726Z,25.47
2022-08-26T18:21:24.243Z,25.37
2022-08-26T18:23:52.521Z,25.48
2022-08-26T18:26:30.368Z,25.41
2022-08-26T18:28:58.915Z,24.51
2022-08-26T18:31:27.886Z,24.76
2022-08-26T18:33:56.097Z,25.04
2022-08-26T18:36:31.180Z,25.30
2022-08-26T18:38:59.565Z,25.30
2022-08-26T18:41:29.740Z,24.33
2022-08-26T18:43:57.921Z,25.06
2022-08-26T18:46:27.386Z,24.60
2022-08-26T18:48:56.197Z,24.90
2022-08-26T18:51:26.980Z,25.01
2022-08-26T18:53:55.685Z,24.77
2022-08-26T18:56:24.997Z,24.76
2022-08-26T18:58:53.264Z,24.63
2022-08-26T19:01:25.497Z,24.54
2022-08-26T19:03:56.947Z,24.18
2022-08-26T19:06:26.736Z,24.23
2022-08-26T19:08:55.682Z,24.31
2022-08-26T19:11:32.275Z,24.25
2022-08-26T19:14:07.453Z,24.21
2022-08-26T19:16:36.386Z,23.91
2022-08-26T19:19:04.908Z,23.93
2022-08-26T19:21:34.119Z,24.20
2022-08-26T19:24:05.996Z,24.01
2022-08-26T19:26:34.786Z,23.43
2022-08-26T19:29:04.058Z,23.76
2022-08-26T19:31:31.996Z,24.00
2022-08-26T19:34:00.071Z,23.97
2022-08-26T19:36:29.044Z,23.80
2022-08-26T19:38:57.613Z,23.58
2022-08-26T19:41:37.024Z,23.31
2022-08-26T19:44:09.597Z,23.67
2022-08-26T19:49:07.127Z,23.62
2022-08-26T19:51:36.524Z,23.69
2022-08-26T19:54:04.744Z,23.60
2022-08-26T19:56:32.994Z,23.43
2022-08-26T19:59:01.220Z,22.78
2022-08-26T20:01:29.097Z,23.31
2022-08-26T20:03:57.220Z,23.60
2022-08-26T20:06:24.978Z,23.18
2022-08-26T20:08:53.871Z,23.02
2022-08-26T20:11:24.028Z,22.43
2022-08-26T20:13:51.782Z,23.41
2022-08-26T20:16:19.970Z,23.39
2022-08-26T20:19:06.669Z,23.52
2022-08-26T20:21:38.225Z,22.87
2022-08-26T20:24:09.443Z,22.82
2022-08-26T20:26:39.012Z,22.73
2022-08-26T20:29:08.323Z,22.33
2022-08-26T20:31:36.605Z,23.05
2022-08-26T20:34:05.380Z,23.17
2022-08-26T20:36:34.401Z,23.21
2022-08-26T20:39:02.515Z,22.96
2022-08-26T20:41:30.628Z,22.75
2022-08-26T20:43:59.070Z,22.99
2022-08-26T20:46:27.372Z,22.68
2022-08-26T20:48:55.333Z,22.66
2022-08-26T20:51:27.379Z,22.89
2022-08-26T20:53:55.384Z,22.74
2022-08-26T20:56:26.142Z,22.24
2022-08-26T20:58:55.627Z,22.78
2022-08-26T21:01:26.204Z,22.81
2022-08-26T21:03:55.582Z,22.41
2022-08-26T21:06:24.039Z,22.75
2022-08-26T21:08:51.831Z,22.98
2022-08-26T21:11:21.644Z,22.47
2022-08-26T21:14:04.472Z,23.17
2022-08-26T21:16:36.975Z,23.13
2022-08-26T21:19:06.601Z,22.76
2022-08-26T21:21:35.152Z,23.01
2022-08-26T21:24:04.315Z,23.03
2022-08-26T21:26:32.657Z,22.79
2022-08-26T21:29:01.757Z,22.77
2022-08-26T21:31:32.155Z,22.98
2022-08-26T21:34:00.229Z,22.92
2022-08-26T21:36:28.004Z,22.50
2022-08-26T21:38:59.708Z,22.06
2022-08-26T21:41:27.824Z,22.86
2022-08-26T21:43:59.335Z,22.14
2022-08-26T21:46:30.357Z,22.89
2022-08-26T21:49:02.962Z,22.84
2022-08-26T21:51:34.776Z,22.64
2022-08-26T21:54:08.622Z,22.99
2022-08-26T21:56:41.840Z,23.05
2022-08-26T21:59:10.412Z,22.76
2022-08-26T22:01:38.600Z,23.13
2022-08-26T22:04:08.315Z,22.99
2022-08-26T22:06:42.438Z,23.05
2022-08-26T22:09:11.894Z,22.56
2022-08-26T22:11:39.763Z,23.02
2022-08-26T22:14:08.286Z,23.12
2022-08-26T22:16:36.402Z,22.84
2022-08-26T22:19:04.363Z,23.05
2022-08-26T22:21:32.477Z,22.94
2022-08-26T22:24:00.666Z,22.92
2022-08-26T22:26:30.505Z,22.96
2022-08-26T22:29:00.264Z,22.81
2022-08-26T22:31:37.846Z,22.60
2022-08-26T22:34:15.263Z,22.40
2022-08-26T22:36:46.698Z,22.28
2022-08-26T22:39:16.710Z,22.59
2022-08-26T22:41:45.451Z,22.67
2022-08-26T22:44:13.187Z,22.76
2022-08-26T22:46:41.641Z,22.67
2022-08-26T22:49:12.748Z,22.30
2022-08-26T22:51:40.557Z,22.44
2022-08-26T22:54:08.856Z,22.34
2022-08-26T22:56:37.115Z,22.09
2022-08-26T22:59:06.895Z,22.33
2022-08-26T23:01:36.966Z,22.13
2022-08-26T23:04:06.428Z,22.05
2022-08-26T23:06:38.757Z,21.84
2022-08-26T23:09:07.975Z,21.76
2022-08-26T23:11:36.396Z,21.66
2022-08-26T23:14:06.304Z,21.52
2022-08-26T23:16:38.006Z,21.40
2022-08-26T23:19:09.188Z,21.77
2022-08-26T23:21:37.834Z,21.89
2022-08-26T23:24:07.197Z,21.70
2022-08-26T23:26:36.155Z,21.67
2022-08-26T23:29:06.262Z,21.53
2022-08-26T23:31:34.469Z,21.14
2022-08-26T23:34:21.014Z,21.20
2022-08-26T23:36:49.123Z,21.34
2022-08-26T23:39:17.130Z,21.14
2022-08-26T23:41:44.921Z,20.99
2022-08-26T23:44:13.251Z,20.89
2022-08-26T23:46:41.069Z,20.88
2022-08-26T23:49:08.856Z,20.99
2022-08-26T23:51:56.972Z,20.97
2022-08-26T23:54:24.786Z,20.88
2022-08-26T23:56:52.987Z,21.05
2022-08-26T23:59:20.947Z,20.76
